Terminal Aerodrome Forecast
Issued by NWS Omaha/Valley, NE

Home | Current Version | Previous Version | Text Only | Print | Product List | Glossary On
Versions: 1 2 3 4 5 6 7 8 9 10 11 12 13
000
FTUS43 KOAX 201720
TAFOMA
TAF
KOMA 201720Z 2018/2118 22010KT P6SM SCT150
     FM202300 18010KT P6SM BKN090
      TEMPO 2100/2104 6SM -SHRA OVC060
     FM210600 22010KT P6SM BKN050 OVC100
      TEMPO 2109/2112 5SM -SHRA OVC040
     FM211400 34014KT P6SM BKN090=

USA.gov is the U.S. government's official web portal to all federal, state and local government web resources and services.